Station GUXA2 - Gustavus Dock, AK Image indicating link to RSS feed of recent meteorological observations for station GUXA2


Conditions at GUXA2 as of
(10:32 am AKDT)
1832 GMT on 06/23/2024:
     

Click on the graph icon in the table below to see a time series plot of the last five days of that observation.

5-day plot - Wind Direction Wind Direction (WDIR): S ( 190 deg true )
5-day plot - Wind Speed Wind Speed (WSPD): 4 kts
5-day plot - Wind Gust Wind Gust (GST): 7 kts
5-day plot - Air Temperature Air Temperature (ATMP): 55.9 °F
5-day plot - Dew Point Dew Point (DEWP): 51.4 °F
5-day plot - Wind Speed at 10 Meters Wind Speed at 10 meters (WSPD10M): 4 kts
5-day plot - Wind Speed at 20 Meters Wind Speed at 20 meters (WSPD20M): 6 kts
5-day plot -  Wind Speed, Wind Gust and Atmospheric Pressure Combined plot of Wind Speed, Gust, and Air Pressure
Previous observations
TIME
(AKDT)
5-day plot - Wind Direction
WDIR
 
5-day plot - Wind Speed
WSPD
kts
5-day plot - Wind Gust
GST
kts
5-day plot - Wave Height
WVHT
ft
5-day plot - Dominant Wave Period
DPD
sec
5-day plot - Average Wave Period
APD
sec
5-day plot - Mean Wave Direction
MWD
 
5-day plot - Atmospheric Pressure
PRES
in
5-day plot - Pressure Tendency
PTDY
in
5-day plot - Air Temperature
ATMP
°F
5-day plot - Water Temperature
WTMP
°F
5-day plot - Dew Point
DEWP
°F
5-day plot - Salinity
SAL
psu
5-day plot - Visibility
VIS
nmi
5-day plot - Tide (above MLLW)
TIDE
ft
2024-06-23 10:22 amSSW 4 7------ 55.0- 50.5---
2024-06-23 10:12 amSSW 3 6------ 54.7- 50.4---
2024-06-23 09:52 amSSW 4 7------ 54.7- 50.2---
2024-06-23 09:42 amSSW 4 7------ 55.2- 50.5---
2024-06-23 09:32 am SW 4 6------ 55.6- 50.9---
2024-06-23 09:22 am SW 4 7------ 55.4- 50.9---
2024-06-23 09:12 am SW 4 7------ 55.4- 50.9---
2024-06-23 09:02 amSSW 3 6------ 55.0- 50.7---
2024-06-23 08:52 am S 3 5------ 54.1- 50.2---
2024-06-23 08:42 amSSW 4 6------ 54.3- 50.0---
2024-06-23 08:32 amSSW 3 6------ 55.0- 50.5---
2024-06-23 08:22 amSSW 3 5------ 55.2- 50.7---
2024-06-23 08:12 am S 3 6------ 55.4- 50.9---
2024-06-23 08:02 am SW 2 3------ 55.6- 50.9---
2024-06-23 07:52 am W 1 3------ 55.2- 50.7---
2024-06-23 07:42 amWNW 1 2------ 54.7- 50.4---
2024-06-23 07:32 am- 0 2------ 54.1- 50.2---
2024-06-23 07:22 am- 0 2------ 53.2- 49.6---
2024-06-23 07:12 am W 1 3------ 52.5- 49.3---
2024-06-23 07:02 am- 0 1------ 52.0- 49.1---
2024-06-23 06:52 amWSW 1 3------ 51.3- 48.7---
2024-06-23 06:42 am SW 2 3------ 50.7- 48.2---
2024-06-23 06:32 amSSW 2 4------ 50.2- 47.7---
2024-06-23 06:22 amSSW 1 3------ 49.8- 47.5---
2024-06-23 06:12 am- 0 1------ 49.1- 46.9---
2024-06-23 06:02 am- 0 1------ 48.4- 46.2---
2024-06-23 05:52 am- 0 1------ 47.7- 45.5---
2024-06-23 05:42 am- 0 1------ 46.6- 44.4---
2024-06-23 05:32 am- 0 1------ 46.0- 43.9---
2024-06-23 05:22 amWNW 1 2------ 45.3- 43.2---
2024-06-23 05:12 am W 1 3------ 45.0- 42.6---
2024-06-23 05:02 amNNE 1 2------ 45.5- 43.3---
2024-06-23 04:52 am N 1 2------ 45.0- 42.8---
2024-06-23 04:42 am NE 1 2------ 45.3- 43.0---
2024-06-23 04:32 am- 0 2------ 45.0- 42.6---
2024-06-23 04:22 am N 1 2------ 45.5- 43.3---
2024-06-23 04:12 amENE 1 2------ 45.1- 42.6---
2024-06-23 04:02 am- 0 2------ 45.1- 42.6---
2024-06-23 03:52 am- 0 2------ 45.3- 42.8---
2024-06-23 03:42 am- 0 2------ 46.0- 43.9---
2024-06-23 03:32 am- 0 1------ 45.9- 43.7---
2024-06-23 03:22 am- 0 1------ 45.7- 43.2---
2024-06-23 03:12 am- 0 1------ 46.2- 43.7---
2024-06-23 03:02 am- 0 1------ 46.2- 43.7---
2024-06-23 02:52 am- 0 1------ 46.2- 43.7---
2024-06-23 02:42 am- 0 2------ 46.6- 44.1---
2024-06-23 02:32 am- 0 2------ 46.9- 44.4---
2024-06-23 02:22 am- 0 1------ 46.8- 44.2---
2024-06-23 02:12 am NW 1 3------ 47.1- 44.6---
2024-06-23 02:02 am- 0 1------ 47.5- 44.8---
2024-06-23 01:52 am- 0 1------ 48.0- 45.5---
2024-06-23 01:42 am- 0 1------ 48.2- 45.3---
2024-06-23 01:32 am N 1 2------ 48.4- 45.5---
2024-06-23 01:22 am- 0 1------ 48.7- 45.9---
2024-06-23 01:12 am- 0 1------ 49.3- 46.6---
2024-06-23 01:02 am- 0 2------ 49.5- 46.9---
2024-06-23 12:52 amSSW 1 2------ 49.1- 46.4---
2024-06-23 12:42 amSSE 1 3------ 49.5- 46.8---
2024-06-23 12:32 am- 0 1------ 49.8- 46.9---
2024-06-23 12:22 am- 0 1------ 50.0- 46.9---
2024-06-23 12:12 am- 0 1------ 50.5- 47.7---
2024-06-23 12:02 am- 0 2------ 50.9- 48.0---
2024-06-22 11:52 pm- 0 1------ 51.4- 48.2---
2024-06-22 11:42 pm- 0 1------ 52.0- 48.4---
2024-06-22 11:32 pm- 0 1------ 52.2- 48.7---
2024-06-22 11:22 pmWNW 1 2------ 52.5- 48.9---
2024-06-22 11:12 pm- 0 1------ 53.1- 48.9---
2024-06-22 11:02 pm- 0 1------ 53.8- 49.5---
2024-06-22 10:52 pm- 0 1------ 54.5- 49.8---
2024-06-22 10:42 pm- 0 2------ 55.0- 50.4---
2024-06-22 10:32 pm- 0 1------ 55.8- 50.7---
2024-06-22 10:22 pm- 0 1------ 56.5- 51.1---
2024-06-22 10:12 pm- 0 1------ 57.0- 51.6---
2024-06-22 10:02 pmNNW 1 2------ 57.7- 52.0---
2024-06-22 09:52 pm NW 2 2------ 58.3- 52.3---
2024-06-22 09:42 pm NW 1 2------ 59.0- 52.9---
2024-06-22 09:32 pm NW 1 2------ 59.5- 52.9---
2024-06-22 09:22 pm NW 1 3------ 60.3- 53.1---
2024-06-22 09:12 pm NW 3 4------ 61.0- 53.2---
2024-06-22 09:02 pm NW 3 6------ 61.9- 53.4---
2024-06-22 08:52 pm NW 3 6------ 62.4- 53.6---
2024-06-22 08:42 pm NW 3 5------ 63.0- 53.8---
2024-06-22 08:32 pmWNW 3 5------ 63.1- 54.0---
2024-06-22 08:22 pmWNW 3 5------ 63.1- 54.0---
2024-06-22 08:12 pmWNW 3 5------ 63.5- 54.0---
2024-06-22 08:02 pmWNW 3 5------ 64.6- 54.3---
2024-06-22 07:52 pmWNW 3 6------ 64.6- 54.3---
2024-06-22 07:42 pm W 3 6------ 64.9- 54.5---
2024-06-22 07:32 pmWNW 4 6------ 65.1- 54.0---
2024-06-22 07:22 pm W 3 6------ 65.5- 54.1---
2024-06-22 07:12 pmWNW 3 8------ 65.5- 54.3---
2024-06-22 07:02 pm NW 2 4------ 64.4- 54.5---
2024-06-22 06:52 pm SE 2 3------ 63.1- 54.3---
2024-06-22 06:42 pmSSE 3 5------ 62.8- 54.3---
2024-06-22 06:32 pm W 2 5------ 65.1- 53.4---
2024-06-22 06:22 pmWNW 4 8------ 64.6- 52.9---
2024-06-22 06:12 pmWNW 5 10------ 65.3- 53.6---
2024-06-22 06:02 pmWNW 4 9------ 65.5- 54.5---
2024-06-22 05:52 pm W 4 8------ 65.7- 55.0---
2024-06-22 05:42 pmWNW 3 6------ 65.3- 54.9---
2024-06-22 05:32 pm NW 4 7------ 64.4- 54.9---
2024-06-22 05:22 pm NW 5 8------ 64.4- 55.2---
2024-06-22 05:12 pmWSW 3 9------ 64.2- 55.8---
2024-06-22 05:02 pmSSE 2 6------ 61.7- 55.0---
2024-06-22 04:52 pm S 4 7------ 60.6- 54.5---
2024-06-22 04:42 pm S 3 5------ 60.1- 54.3---
2024-06-22 04:32 pmSSW 3 5------ 59.7- 54.0---
2024-06-22 04:22 pm S 4 6------ 58.8- 53.6---
2024-06-22 04:12 pmSSW 3 6------ 58.5- 53.2---
2024-06-22 03:52 pmSSW 3 6------ 58.1- 53.1---
2024-06-22 03:42 pmSSW 4 7------ 58.1- 53.1---
2024-06-22 03:32 pm S 4 7------ 57.7- 52.7---
2024-06-22 03:22 pm S 4 7------ 56.8- 52.2---
2024-06-22 03:12 pmSSW 4 7------ 56.5- 51.8---
2024-06-22 03:02 pmSSW 5 9------ 56.8- 52.2---
2024-06-22 02:52 pmSSW 5 10------ 57.9- 53.2---
2024-06-22 02:42 pm S 4 9------ 59.4- 54.5---
2024-06-22 02:32 pmSSW 3 5------ 58.1- 53.8---
2024-06-22 02:22 pm SW 3 6------ 57.2- 53.1---
2024-06-22 02:12 pmSSW 3 6------ 57.6- 53.6---
2024-06-22 02:02 pm S 3 5------ 57.6- 53.8---
2024-06-22 01:52 pmSSW 3 5------ 57.4- 53.6---
2024-06-22 01:42 pmSSW 2 4------ 56.5- 52.9---
2024-06-22 01:32 pm SW 3 5------ 55.9- 52.5---
2024-06-22 01:22 pmSSW 3 5------ 55.8- 52.7---
2024-06-22 01:12 pmSSW 3 5------ 55.8- 52.9---
2024-06-22 01:02 pm SW 1 3------ 55.4- 52.7---
2024-06-22 12:52 pmWSW 2 3------ 54.7- 51.8---
2024-06-22 12:42 pm S 2 3------ 54.3- 51.4---
2024-06-22 12:32 pm S 1 2------ 54.1- 51.1---
2024-06-22 12:22 pmSSW 1 3------ 54.0- 51.1---
2024-06-22 12:12 pmSSW 3 4------ 53.6- 50.7---
2024-06-22 12:02 pm S 3 4------ 54.1- 50.9---
2024-06-22 11:52 am S 3 4------ 55.0- 51.6---
2024-06-22 11:42 am SE 3 4------ 55.8- 52.3---
2024-06-22 11:32 amESE 2 4------ 56.8- 53.1---
2024-06-22 11:22 am NW 1 3------ 56.8- 53.1---
2024-06-22 11:12 amWNW 1 3------ 56.5- 52.7---
2024-06-22 11:02 am- 0 3------ 56.3- 52.9---
2024-06-22 10:52 am NW 2 4------ 55.6- 52.2---
2024-06-22 10:42 am NW 2 4------ 55.6- 52.2---
2024-06-22 10:32 amNNW 1 3------ 55.2- 52.0---
2024-06-22 10:22 am N 1 3------ 54.9- 51.6---
2024-06-22 10:12 am NW 2 4------ 54.5- 51.3---
2024-06-22 10:02 am NW 2 5------ 54.3- 51.1---
2024-06-22 09:52 am N 2 3------ 54.3- 51.1---